sensor_id;sensor_type;location;lat;lon;timestamp;temperature;humidity
12661;DHT22;39039;51.802;5.710;2022-09-09T00:00:18;16.10;99.90
12661;DHT22;39039;51.802;5.710;2022-09-09T00:02:49;16.00;99.90
12661;DHT22;39039;51.802;5.710;2022-09-09T00:05:25;16.00;99.90
12661;DHT22;39039;51.802;5.710;2022-09-09T00:07:59;15.90;99.90
12661;DHT22;39039;51.802;5.710;2022-09-09T00:10:31;15.90;99.90
12661;DHT22;39039;51.802;5.710;2022-09-09T00:13:06;15.50;99.90
12661;DHT22;39039;51.802;5.710;2022-09-09T00:15:46;15.80;99.90
12661;DHT22;39039;51.802;5.710;2022-09-09T00:18:24;15.80;99.90
12661;DHT22;39039;51.802;5.710;2022-09-09T00:20:57;15.70;99.90
12661;DHT22;39039;51.802;5.710;2022-09-09T00:23:28;15.70;99.90
12661;DHT22;39039;51.802;5.710;2022-09-09T00:26:02;15.70;99.90
12661;DHT22;39039;51.802;5.710;2022-09-09T00:28:33;15.70;99.90
12661;DHT22;39039;51.802;5.710;2022-09-09T00:31:12;15.70;99.90
12661;DHT22;39039;51.802;5.710;2022-09-09T00:33:39;15.70;99.90
12661;DHT22;39039;51.802;5.710;2022-09-09T00:36:12;15.50;99.90
12661;DHT22;39039;51.802;5.710;2022-09-09T00:38:43;15.60;99.90
12661;DHT22;39039;51.802;5.710;2022-09-09T00:41:17;15.50;99.90
12661;DHT22;39039;51.802;5.710;2022-09-09T00:43:55;15.40;99.90
12661;DHT22;39039;51.802;5.710;2022-09-09T00:46:40;15.40;99.90
12661;DHT22;39039;51.802;5.710;2022-09-09T00:49:18;15.30;99.90
12661;DHT22;39039;51.802;5.710;2022-09-09T00:51:53;15.20;99.90
12661;DHT22;39039;51.802;5.710;2022-09-09T00:54:30;15.10;99.90
12661;DHT22;39039;51.802;5.710;2022-09-09T00:57:06;15.10;99.90
12661;DHT22;39039;51.802;5.710;2022-09-09T00:59:46;15.00;99.90
12661;DHT22;39039;51.802;5.710;2022-09-09T01:02:21;15.10;99.90
12661;DHT22;39039;51.802;5.710;2022-09-09T01:04:52;15.10;99.90
12661;DHT22;39039;51.802;5.710;2022-09-09T01:07:20;15.00;99.90
12661;DHT22;39039;51.802;5.710;2022-09-09T01:09:56;15.00;99.90
12661;DHT22;39039;51.802;5.710;2022-09-09T01:12:27;15.00;99.90
12661;DHT22;39039;51.802;5.710;2022-09-09T01:15:01;15.00;99.90
12661;DHT22;39039;51.802;5.710;2022-09-09T01:17:33;14.90;99.90
12661;DHT22;39039;51.802;5.710;2022-09-09T01:20:09;14.90;99.90
12661;DHT22;39039;51.802;5.710;2022-09-09T01:22:44;14.90;99.90
12661;DHT22;39039;51.802;5.710;2022-09-09T01:25:28;14.80;99.90
12661;DHT22;39039;51.802;5.710;2022-09-09T01:27:59;14.80;99.90
12661;DHT22;39039;51.802;5.710;2022-09-09T01:30:27;14.80;99.90
12661;DHT22;39039;51.802;5.710;2022-09-09T01:32:56;14.80;99.90
12661;DHT22;39039;51.802;5.710;2022-09-09T01:35:39;14.80;99.90
12661;DHT22;39039;51.802;5.710;2022-09-09T01:40:35;14.80;99.90
12661;DHT22;39039;51.802;5.710;2022-09-09T01:43:04;14.70;99.90
12661;DHT22;39039;51.802;5.710;2022-09-09T01:45:32;14.80;99.90
12661;DHT22;39039;51.802;5.710;2022-09-09T01:47:59;14.70;99.90
12661;DHT22;39039;51.802;5.710;2022-09-09T01:52:57;14.70;99.90
12661;DHT22;39039;51.802;5.710;2022-09-09T01:55:30;14.70;99.90
12661;DHT22;39039;51.802;5.710;2022-09-09T01:58:14;14.70;99.90
12661;DHT22;39039;51.802;5.710;2022-09-09T02:00:50;14.60;99.90
12661;DHT22;39039;51.802;5.710;2022-09-09T02:03:25;14.60;99.90
12661;DHT22;39039;51.802;5.710;2022-09-09T02:06:00;14.60;99.90
12661;DHT22;39039;51.802;5.710;2022-09-09T02:08:35;14.50;99.90
12661;DHT22;39039;51.802;5.710;2022-09-09T02:11:10;14.50;99.90
12661;DHT22;39039;51.802;5.710;2022-09-09T02:13:39;14.50;99.90
12661;DHT22;39039;51.802;5.710;2022-09-09T02:16:10;14.50;99.90
12661;DHT22;39039;51.802;5.710;2022-09-09T02:18:40;14.40;99.90
12661;DHT22;39039;51.802;5.710;2022-09-09T02:21:10;14.50;99.90
12661;DHT22;39039;51.802;5.710;2022-09-09T02:23:39;14.50;99.90
12661;DHT22;39039;51.802;5.710;2022-09-09T02:26:09;14.50;99.90
12661;DHT22;39039;51.802;5.710;2022-09-09T02:28:38;14.50;99.90
12661;DHT22;39039;51.802;5.710;2022-09-09T02:33:37;14.40;99.90
12661;DHT22;39039;51.802;5.710;2022-09-09T02:36:08;14.40;99.90
12661;DHT22;39039;51.802;5.710;2022-09-09T02:38:45;14.20;99.90
12661;DHT22;39039;51.802;5.710;2022-09-09T02:43:44;14.20;99.90
12661;DHT22;39039;51.802;5.710;2022-09-09T02:46:25;14.30;99.90
12661;DHT22;39039;51.802;5.710;2022-09-09T02:49:00;14.30;99.90
12661;DHT22;39039;51.802;5.710;2022-09-09T02:51:35;14.30;99.90
12661;DHT22;39039;51.802;5.710;2022-09-09T02:54:10;14.30;99.90
12661;DHT22;39039;51.802;5.710;2022-09-09T02:56:41;14.30;99.90
12661;DHT22;39039;51.802;5.710;2022-09-09T02:59:11;14.30;99.90
12661;DHT22;39039;51.802;5.710;2022-09-09T03:06:32;14.30;99.90
12661;DHT22;39039;51.802;5.710;2022-09-09T03:09:01;14.20;99.90
12661;DHT22;39039;51.802;5.710;2022-09-09T03:13:55;14.30;99.90
12661;DHT22;39039;51.802;5.710;2022-09-09T03:16:23;14.30;99.90
12661;DHT22;39039;51.802;5.710;2022-09-09T03:18:50;14.30;99.90
12661;DHT22;39039;51.802;5.710;2022-09-09T03:21:17;14.30;99.90
12661;DHT22;39039;51.802;5.710;2022-09-09T03:23:44;14.30;99.90
12661;DHT22;39039;51.802;5.710;2022-09-09T03:33:37;14.40;99.90
12661;DHT22;39039;51.802;5.710;2022-09-09T03:38:31;14.50;99.90
12661;DHT22;39039;51.802;5.710;2022-09-09T03:40:59;14.60;99.90
12661;DHT22;39039;51.802;5.710;2022-09-09T03:43:28;14.60;99.90
12661;DHT22;39039;51.802;5.710;2022-09-09T03:45:54;14.70;99.90
12661;DHT22;39039;51.802;5.710;2022-09-09T03:48:22;14.80;99.90
12661;DHT22;39039;51.802;5.710;2022-09-09T03:50:52;14.80;99.90
12661;DHT22;39039;51.802;5.710;2022-09-09T03:53:21;14.90;99.90
12661;DHT22;39039;51.802;5.710;2022-09-09T03:55:49;15.00;99.90
12661;DHT22;39039;51.802;5.710;2022-09-09T03:58:18;15.00;99.90
12661;DHT22;39039;51.802;5.710;2022-09-09T04:00:53;15.10;99.90
12661;DHT22;39039;51.802;5.710;2022-09-09T04:05:48;15.10;99.90
12661;DHT22;39039;51.802;5.710;2022-09-09T04:08:17;15.10;99.90
12661;DHT22;39039;51.802;5.710;2022-09-09T04:10:45;15.10;99.90
12661;DHT22;39039;51.802;5.710;2022-09-09T04:15:41;15.20;99.90
12661;DHT22;39039;51.802;5.710;2022-09-09T04:25:32;15.30;99.90
12661;DHT22;39039;51.802;5.710;2022-09-09T04:32:55;15.30;99.90
12661;DHT22;39039;51.802;5.710;2022-09-09T04:42:45;15.50;99.90
12661;DHT22;39039;51.802;5.710;2022-09-09T04:52:34;15.60;99.90
12661;DHT22;39039;51.802;5.710;2022-09-09T04:59:59;15.60;99.90
12661;DHT22;39039;51.802;5.710;2022-09-09T05:04:55;15.60;99.90
12661;DHT22;39039;51.802;5.710;2022-09-09T05:17:12;15.60;99.90
12661;DHT22;39039;51.802;5.710;2022-09-09T05:34:23;15.60;99.90
12661;DHT22;39039;51.802;5.710;2022-09-09T05:36:50;15.60;99.90
12661;DHT22;39039;51.802;5.710;2022-09-09T05:41:44;15.60;99.90
12661;DHT22;39039;51.802;5.710;2022-09-09T05:44:11;15.70;99.90
12661;DHT22;39039;51.802;5.710;2022-09-09T05:46:39;15.80;99.90
12661;DHT22;39039;51.802;5.710;2022-09-09T05:51:35;15.90;99.90
12661;DHT22;39039;51.802;5.710;2022-09-09T05:56:29;16.10;99.90
12661;DHT22;39039;51.802;5.710;2022-09-09T05:58:58;16.10;99.90
12661;DHT22;39039;51.802;5.710;2022-09-09T06:01:28;16.20;99.90
12661;DHT22;39039;51.802;5.710;2022-09-09T06:03:55;16.20;99.90
12661;DHT22;39039;51.802;5.710;2022-09-09T06:06:24;16.20;99.90
12661;DHT22;39039;51.802;5.710;2022-09-09T06:08:55;16.10;99.90
12661;DHT22;39039;51.802;5.710;2022-09-09T06:11:24;16.10;99.90
12661;DHT22;39039;51.802;5.710;2022-09-09T06:16:21;16.20;99.90
12661;DHT22;39039;51.802;5.710;2022-09-09T06:18:49;16.10;99.90
12661;DHT22;39039;51.802;5.710;2022-09-09T06:21:18;16.10;99.90
12661;DHT22;39039;51.802;5.710;2022-09-09T06:26:16;16.10;99.90
12661;DHT22;39039;51.802;5.710;2022-09-09T06:28:44;16.10;99.90
12661;DHT22;39039;51.802;5.710;2022-09-09T06:31:12;16.20;99.90
12661;DHT22;39039;51.802;5.710;2022-09-09T06:33:40;14.20;99.90
12661;DHT22;39039;51.802;5.710;2022-09-09T06:36:11;16.20;99.90
12661;DHT22;39039;51.802;5.710;2022-09-09T06:38:38;16.20;99.90
12661;DHT22;39039;51.802;5.710;2022-09-09T06:41:05;16.20;99.90
12661;DHT22;39039;51.802;5.710;2022-09-09T06:43:33;16.20;99.90
12661;DHT22;39039;51.802;5.710;2022-09-09T06:46:02;16.30;99.90
12661;DHT22;39039;51.802;5.710;2022-09-09T06:51:03;16.40;99.90
12661;DHT22;39039;51.802;5.710;2022-09-09T06:53:32;16.40;99.90
12661;DHT22;39039;51.802;5.710;2022-09-09T07:01:03;16.40;99.90
12661;DHT22;39039;51.802;5.710;2022-09-09T07:08:24;16.50;99.90
12661;DHT22;39039;51.802;5.710;2022-09-09T07:10:52;16.60;99.90
12661;DHT22;39039;51.802;5.710;2022-09-09T07:15:49;16.70;99.90
12661;DHT22;39039;51.802;5.710;2022-09-09T07:18:17;16.70;99.90
12661;DHT22;39039;51.802;5.710;2022-09-09T07:20:52;16.80;99.90
12661;DHT22;39039;51.802;5.710;2022-09-09T07:23:19;16.80;99.90
12661;DHT22;39039;51.802;5.710;2022-09-09T07:35:37;17.50;99.90
12661;DHT22;39039;51.802;5.710;2022-09-09T07:40:32;17.70;99.90
12661;DHT22;39039;51.802;5.710;2022-09-09T07:42:59;17.60;99.90
12661;DHT22;39039;51.802;5.710;2022-09-09T07:45:26;17.50;99.90
12661;DHT22;39039;51.802;5.710;2022-09-09T07:52:51;18.00;99.90
12661;DHT22;39039;51.802;5.710;2022-09-09T07:55:19;18.00;99.90
12661;DHT22;39039;51.802;5.710;2022-09-09T07:57:46;18.10;99.90
12661;DHT22;39039;51.802;5.710;2022-09-09T08:00:13;18.00;99.90
12661;DHT22;39039;51.802;5.710;2022-09-09T08:02:41;17.90;99.90
12661;DHT22;39039;51.802;5.710;2022-09-09T08:07:35;18.10;99.90
12661;DHT22;39039;51.802;5.710;2022-09-09T08:10:03;18.00;99.90
12661;DHT22;39039;51.802;5.710;2022-09-09T08:12:32;18.30;99.90
12661;DHT22;39039;51.802;5.710;2022-09-09T08:14:59;18.30;99.90
12661;DHT22;39039;51.802;5.710;2022-09-09T08:27:15;18.90;99.90
12661;DHT22;39039;51.802;5.710;2022-09-09T08:34:37;19.20;99.90
12661;DHT22;39039;51.802;5.710;2022-09-09T08:42:35;19.00;99.90
12661;DHT22;39039;51.802;5.710;2022-09-09T08:45:17;18.80;99.90
12661;DHT22;39039;51.802;5.710;2022-09-09T08:47:51;18.90;99.90
12661;DHT22;39039;51.802;5.710;2022-09-09T08:50:24;18.90;99.90
12661;DHT22;39039;51.802;5.710;2022-09-09T08:52:57;18.80;99.90
12661;DHT22;39039;51.802;5.710;2022-09-09T08:55:34;18.80;99.90
12661;DHT22;39039;51.802;5.710;2022-09-09T08:58:09;18.80;99.90
12661;DHT22;39039;51.802;5.710;2022-09-09T09:00:45;18.60;99.90
12661;DHT22;39039;51.802;5.710;2022-09-09T09:03:21;18.50;99.90
12661;DHT22;39039;51.802;5.710;2022-09-09T09:05:57;18.40;99.90
12661;DHT22;39039;51.802;5.710;2022-09-09T09:08:29;18.50;99.90
12661;DHT22;39039;51.802;5.710;2022-09-09T09:10:58;18.60;99.90
12661;DHT22;39039;51.802;5.710;2022-09-09T09:13:33;18.70;99.90
12661;DHT22;39039;51.802;5.710;2022-09-09T09:16:06;18.80;99.90
12661;DHT22;39039;51.802;5.710;2022-09-09T09:21:07;18.80;99.90
12661;DHT22;39039;51.802;5.710;2022-09-09T09:23:42;19.00;99.90
12661;DHT22;39039;51.802;5.710;2022-09-09T09:28:40;19.20;99.90
12661;DHT22;39039;51.802;5.710;2022-09-09T09:31:10;19.40;99.90
12661;DHT22;39039;51.802;5.710;2022-09-09T09:33:43;19.40;99.90
12661;DHT22;39039;51.802;5.710;2022-09-09T09:36:12;19.40;99.90
12661;DHT22;39039;51.802;5.710;2022-09-09T09:38:52;19.60;99.90
12661;DHT22;39039;51.802;5.710;2022-09-09T09:41:29;19.50;99.90
12661;DHT22;39039;51.802;5.710;2022-09-09T09:43:58;19.20;99.90
12661;DHT22;39039;51.802;5.710;2022-09-09T09:46:26;18.90;99.90
12661;DHT22;39039;51.802;5.710;2022-09-09T09:48:58;18.90;99.90
12661;DHT22;39039;51.802;5.710;2022-09-09T09:51:25;19.00;99.90
12661;DHT22;39039;51.802;5.710;2022-09-09T09:53:53;18.90;99.90
12661;DHT22;39039;51.802;5.710;2022-09-09T09:56:27;18.90;99.90
12661;DHT22;39039;51.802;5.710;2022-09-09T09:58:55;18.90;99.90
12661;DHT22;39039;51.802;5.710;2022-09-09T10:01:24;18.90;99.90
12661;DHT22;39039;51.802;5.710;2022-09-09T10:03:54;19.10;99.90
12661;DHT22;39039;51.802;5.710;2022-09-09T10:06:30;19.30;99.90
12661;DHT22;39039;51.802;5.710;2022-09-09T10:11:40;19.40;99.90
12661;DHT22;39039;51.802;5.710;2022-09-09T10:14:18;19.30;99.90
12661;DHT22;39039;51.802;5.710;2022-09-09T10:16:56;19.40;99.90
12661;DHT22;39039;51.802;5.710;2022-09-09T10:19:30;19.60;99.90
12661;DHT22;39039;51.802;5.710;2022-09-09T10:22:04;19.60;99.90
12661;DHT22;39039;51.802;5.710;2022-09-09T10:25:01;19.60;99.90
12661;DHT22;39039;51.802;5.710;2022-09-09T10:27:38;20.10;99.90
12661;DHT22;39039;51.802;5.710;2022-09-09T10:30:14;20.40;99.90
12661;DHT22;39039;51.802;5.710;2022-09-09T10:32:48;20.40;99.90
12661;DHT22;39039;51.802;5.710;2022-09-09T10:35:28;20.10;99.90
12661;DHT22;39039;51.802;5.710;2022-09-09T10:38:16;19.80;99.90
12661;DHT22;39039;51.802;5.710;2022-09-09T10:43:52;19.50;99.90
12661;DHT22;39039;51.802;5.710;2022-09-09T10:46:27;19.20;99.90
12661;DHT22;39039;51.802;5.710;2022-09-09T10:49:13;19.00;99.90
12661;DHT22;39039;51.802;5.710;2022-09-09T10:51:49;18.50;99.90
12661;DHT22;39039;51.802;5.710;2022-09-09T10:54:31;18.40;99.90
12661;DHT22;39039;51.802;5.710;2022-09-09T10:57:11;18.40;99.90
12661;DHT22;39039;51.802;5.710;2022-09-09T10:59:41;18.40;99.90
12661;DHT22;39039;51.802;5.710;2022-09-09T11:02:13;18.40;99.90
12661;DHT22;39039;51.802;5.710;2022-09-09T11:04:47;18.50;99.90
12661;DHT22;39039;51.802;5.710;2022-09-09T11:07:22;18.70;99.90
12661;DHT22;39039;51.802;5.710;2022-09-09T11:09:56;19.00;99.90
12661;DHT22;39039;51.802;5.710;2022-09-09T11:14:57;19.00;99.90
12661;DHT22;39039;51.802;5.710;2022-09-09T11:17:29;19.20;99.90
12661;DHT22;39039;51.802;5.710;2022-09-09T11:20:00;19.20;99.90
12661;DHT22;39039;51.802;5.710;2022-09-09T11:22:31;19.30;99.90
12661;DHT22;39039;51.802;5.710;2022-09-09T11:25:02;19.40;99.90
12661;DHT22;39039;51.802;5.710;2022-09-09T11:27:37;19.60;99.90
12661;DHT22;39039;51.802;5.710;2022-09-09T11:30:21;19.50;99.90
12661;DHT22;39039;51.802;5.710;2022-09-09T11:33:29;19.50;99.90
12661;DHT22;39039;51.802;5.710;2022-09-09T11:36:11;19.60;99.90
12661;DHT22;39039;51.802;5.710;2022-09-09T11:38:45;19.90;99.90
12661;DHT22;39039;51.802;5.710;2022-09-09T11:41:12;20.10;99.90
12661;DHT22;39039;51.802;5.710;2022-09-09T11:43:41;20.10;99.90
12661;DHT22;39039;51.802;5.710;2022-09-09T11:46:08;20.10;99.90
12661;DHT22;39039;51.802;5.710;2022-09-09T11:48:38;20.00;99.90
12661;DHT22;39039;51.802;5.710;2022-09-09T11:51:11;19.90;99.90
12661;DHT22;39039;51.802;5.710;2022-09-09T11:53:49;19.40;99.90
12661;DHT22;39039;51.802;5.710;2022-09-09T11:56:25;19.20;99.90
12661;DHT22;39039;51.802;5.710;2022-09-09T11:58:57;19.10;99.90
12661;DHT22;39039;51.802;5.710;2022-09-09T12:01:34;19.20;99.90
12661;DHT22;39039;51.802;5.710;2022-09-09T12:04:10;19.40;99.90
12661;DHT22;39039;51.802;5.710;2022-09-09T12:06:44;19.70;99.90
12661;DHT22;39039;51.802;5.710;2022-09-09T12:09:23;19.90;99.90
12661;DHT22;39039;51.802;5.710;2022-09-09T12:14:23;19.80;99.90
12661;DHT22;39039;51.802;5.710;2022-09-09T12:17:09;19.70;99.90
12661;DHT22;39039;51.802;5.710;2022-09-09T12:19:36;19.60;99.90
12661;DHT22;39039;51.802;5.710;2022-09-09T12:22:09;19.70;99.90
12661;DHT22;39039;51.802;5.710;2022-09-09T12:24:45;19.80;99.90
12661;DHT22;39039;51.802;5.710;2022-09-09T12:27:19;19.70;99.90
12661;DHT22;39039;51.802;5.710;2022-09-09T12:29:52;19.60;99.90
12661;DHT22;39039;51.802;5.710;2022-09-09T12:32:24;19.70;99.90
12661;DHT22;39039;51.802;5.710;2022-09-09T12:34:54;19.80;99.90
12661;DHT22;39039;51.802;5.710;2022-09-09T12:37:31;19.90;99.90
12661;DHT22;39039;51.802;5.710;2022-09-09T12:40:00;19.80;99.90
12661;DHT22;39039;51.802;5.710;2022-09-09T12:44:56;19.40;99.90
12661;DHT22;39039;51.802;5.710;2022-09-09T12:47:29;19.30;99.90
12661;DHT22;39039;51.802;5.710;2022-09-09T12:52:29;19.30;99.90
12661;DHT22;39039;51.802;5.710;2022-09-09T12:54:58;19.30;99.90
12661;DHT22;39039;51.802;5.710;2022-09-09T12:57:33;19.70;99.90
12661;DHT22;39039;51.802;5.710;2022-09-09T13:00:07;19.70;99.90
12661;DHT22;39039;51.802;5.710;2022-09-09T13:02:46;19.80;99.90
12661;DHT22;39039;51.802;5.710;2022-09-09T13:05:15;20.10;99.90
12661;DHT22;39039;51.802;5.710;2022-09-09T13:07:44;20.30;99.90
12661;DHT22;39039;51.802;5.710;2022-09-09T13:10:14;20.50;99.90
12661;DHT22;39039;51.802;5.710;2022-09-09T13:12:42;20.80;99.90
12661;DHT22;39039;51.802;5.710;2022-09-09T13:15:16;21.00;99.90
12661;DHT22;39039;51.802;5.710;2022-09-09T13:17:50;21.10;99.90
12661;DHT22;39039;51.802;5.710;2022-09-09T13:20:19;20.80;99.90
12661;DHT22;39039;51.802;5.710;2022-09-09T13:22:48;20.70;99.90
12661;DHT22;39039;51.802;5.710;2022-09-09T13:25:21;20.50;99.90
12661;DHT22;39039;51.802;5.710;2022-09-09T13:27:57;20.30;99.90
12661;DHT22;39039;51.802;5.710;2022-09-09T13:30:27;20.30;99.90
12661;DHT22;39039;51.802;5.710;2022-09-09T13:33:05;20.10;99.90
12661;DHT22;39039;51.802;5.710;2022-09-09T13:38:07;20.10;99.90
12661;DHT22;39039;51.802;5.710;2022-09-09T13:40:35;20.20;99.90
12661;DHT22;39039;51.802;5.710;2022-09-09T13:48:09;20.80;99.90
12661;DHT22;39039;51.802;5.710;2022-09-09T13:50:36;20.80;99.90
12661;DHT22;39039;51.802;5.710;2022-09-09T13:55:31;20.80;99.90
12661;DHT22;39039;51.802;5.710;2022-09-09T13:58:00;21.00;99.90
12661;DHT22;39039;51.802;5.710;2022-09-09T14:00:29;21.30;99.90
12661;DHT22;39039;51.802;5.710;2022-09-09T14:02:56;21.60;99.90
12661;DHT22;39039;51.802;5.710;2022-09-09T14:05:23;21.90;99.90
12661;DHT22;39039;51.802;5.710;2022-09-09T14:07:50;22.30;99.90
12661;DHT22;39039;51.802;5.710;2022-09-09T14:12:45;22.50;99.90
12661;DHT22;39039;51.802;5.710;2022-09-09T14:15:12;22.40;99.90
12661;DHT22;39039;51.802;5.710;2022-09-09T14:20:08;22.40;99.90
12661;DHT22;39039;51.802;5.710;2022-09-09T14:22:35;22.20;99.90
12661;DHT22;39039;51.802;5.710;2022-09-09T14:25:03;22.00;99.90
12661;DHT22;39039;51.802;5.710;2022-09-09T14:27:30;21.70;99.90
12661;DHT22;39039;51.802;5.710;2022-09-09T14:29:59;21.50;99.90
12661;DHT22;39039;51.802;5.710;2022-09-09T14:47:12;21.10;99.90
12661;DHT22;39039;51.802;5.710;2022-09-09T15:04:24;21.60;99.90
12661;DHT22;39039;51.802;5.710;2022-09-09T15:09:18;21.10;99.90
12661;DHT22;39039;51.802;5.710;2022-09-09T15:21:37;21.40;99.90
12661;DHT22;39039;51.802;5.710;2022-09-09T15:24:04;21.40;99.90
12661;DHT22;39039;51.802;5.710;2022-09-09T15:26:32;21.30;99.90
12661;DHT22;39039;51.802;5.710;2022-09-09T15:28:59;21.00;99.90
12661;DHT22;39039;51.802;5.710;2022-09-09T15:31:28;20.80;99.90
12661;DHT22;39039;51.802;5.710;2022-09-09T15:33:57;20.50;99.90
12661;DHT22;39039;51.802;5.710;2022-09-09T15:36:28;20.10;99.90
12661;DHT22;39039;51.802;5.710;2022-09-09T15:38:56;20.10;99.90
12661;DHT22;39039;51.802;5.710;2022-09-09T15:43:51;19.90;99.90
12661;DHT22;39039;51.802;5.710;2022-09-09T15:46:27;19.70;99.90
12661;DHT22;39039;51.802;5.710;2022-09-09T15:48:55;19.40;99.90
12661;DHT22;39039;51.802;5.710;2022-09-09T15:51:23;18.90;99.90
12661;DHT22;39039;51.802;5.710;2022-09-09T15:53:53;18.10;99.90
12661;DHT22;39039;51.802;5.710;2022-09-09T15:56:22;17.80;99.90
12661;DHT22;39039;51.802;5.710;2022-09-09T16:03:45;17.30;99.90
12661;DHT22;39039;51.802;5.710;2022-09-09T16:06:13;17.30;99.90
12661;DHT22;39039;51.802;5.710;2022-09-09T16:08:41;17.20;99.90
12661;DHT22;39039;51.802;5.710;2022-09-09T16:11:09;17.30;99.90
12661;DHT22;39039;51.802;5.710;2022-09-09T16:13:39;17.30;99.90
12661;DHT22;39039;51.802;5.710;2022-09-09T16:16:07;17.30;99.90
12661;DHT22;39039;51.802;5.710;2022-09-09T16:18:35;17.20;99.90
12661;DHT22;39039;51.802;5.710;2022-09-09T16:21:02;17.20;99.90
12661;DHT22;39039;51.802;5.710;2022-09-09T16:23:30;17.30;99.90
12661;DHT22;39039;51.802;5.710;2022-09-09T16:30:53;17.50;99.90
12661;DHT22;39039;51.802;5.710;2022-09-09T16:35:47;17.60;99.90
12661;DHT22;39039;51.802;5.710;2022-09-09T16:40:42;17.70;99.90
12661;DHT22;39039;51.802;5.710;2022-09-09T16:45:42;17.90;99.90
12661;DHT22;39039;51.802;5.710;2022-09-09T16:48:10;18.00;99.90
12661;DHT22;39039;51.802;5.710;2022-09-09T16:53:04;17.70;99.90
12661;DHT22;39039;51.802;5.710;2022-09-09T16:55:38;17.70;99.90
12661;DHT22;39039;51.802;5.710;2022-09-09T17:05:29;17.60;99.90
12661;DHT22;39039;51.802;5.710;2022-09-09T17:17:46;17.50;99.90
12661;DHT22;39039;51.802;5.710;2022-09-09T17:20:14;17.50;99.90
12661;DHT22;39039;51.802;5.710;2022-09-09T17:22:42;17.60;99.90
12661;DHT22;39039;51.802;5.710;2022-09-09T17:30:05;17.50;99.90
12661;DHT22;39039;51.802;5.710;2022-09-09T17:35:01;17.50;99.90
12661;DHT22;39039;51.802;5.710;2022-09-09T17:37:27;17.50;99.90
12661;DHT22;39039;51.802;5.710;2022-09-09T17:39:56;17.50;99.90
12661;DHT22;39039;51.802;5.710;2022-09-09T17:47:18;17.40;99.90
12661;DHT22;39039;51.802;5.710;2022-09-09T17:57:09;17.30;99.90
12661;DHT22;39039;51.802;5.710;2022-09-09T17:59:36;17.20;99.90
12661;DHT22;39039;51.802;5.710;2022-09-09T18:02:03;17.20;99.90
12661;DHT22;39039;51.802;5.710;2022-09-09T18:06:58;17.10;99.90
12661;DHT22;39039;51.802;5.710;2022-09-09T18:09:26;17.10;99.90
12661;DHT22;39039;51.802;5.710;2022-09-09T18:11:55;17.00;99.90
12661;DHT22;39039;51.802;5.710;2022-09-09T18:14:25;17.00;99.90
12661;DHT22;39039;51.802;5.710;2022-09-09T18:19:21;16.90;99.90
12661;DHT22;39039;51.802;5.710;2022-09-09T18:21:48;16.90;99.90
12661;DHT22;39039;51.802;5.710;2022-09-09T18:24:16;16.80;99.90
12661;DHT22;39039;51.802;5.710;2022-09-09T18:26:44;16.80;99.90
12661;DHT22;39039;51.802;5.710;2022-09-09T18:29:13;16.70;99.90
12661;DHT22;39039;51.802;5.710;2022-09-09T18:31:42;16.60;99.90
12661;DHT22;39039;51.802;5.710;2022-09-09T18:34:10;16.70;99.90
12661;DHT22;39039;51.802;5.710;2022-09-09T18:36:39;16.70;99.90
12661;DHT22;39039;51.802;5.710;2022-09-09T18:39:07;16.60;99.90
12661;DHT22;39039;51.802;5.710;2022-09-09T18:41:35;16.60;99.90
12661;DHT22;39039;51.802;5.710;2022-09-09T18:44:05;16.50;99.90
12661;DHT22;39039;51.802;5.710;2022-09-09T18:46:34;16.40;99.90
12661;DHT22;39039;51.802;5.710;2022-09-09T18:49:02;16.50;99.90
12661;DHT22;39039;51.802;5.710;2022-09-09T18:53:59;16.40;99.90
12661;DHT22;39039;51.802;5.710;2022-09-09T18:56:27;15.70;99.90
12661;DHT22;39039;51.802;5.710;2022-09-09T18:58:56;16.30;99.90
12661;DHT22;39039;51.802;5.710;2022-09-09T19:01:24;16.30;99.90
12661;DHT22;39039;51.802;5.710;2022-09-09T19:06:22;16.10;99.90
12661;DHT22;39039;51.802;5.710;2022-09-09T19:08:50;16.10;99.90
12661;DHT22;39039;51.802;5.710;2022-09-09T19:11:19;19.10;99.90
12661;DHT22;39039;51.802;5.710;2022-09-09T19:13:49;16.00;99.90
12661;DHT22;39039;51.802;5.710;2022-09-09T19:16:17;15.90;99.90
12661;DHT22;39039;51.802;5.710;2022-09-09T19:21:14;15.90;99.90
12661;DHT22;39039;51.802;5.710;2022-09-09T19:23:44;15.90;99.90
12661;DHT22;39039;51.802;5.710;2022-09-09T19:26:12;15.90;99.90
12661;DHT22;39039;51.802;5.710;2022-09-09T19:31:10;15.80;99.90
12661;DHT22;39039;51.802;5.710;2022-09-09T19:33:38;15.70;99.90
12661;DHT22;39039;51.802;5.710;2022-09-09T19:36:06;15.70;99.90
12661;DHT22;39039;51.802;5.710;2022-09-09T19:38:34;15.70;99.90
12661;DHT22;39039;51.802;5.710;2022-09-09T19:41:04;15.70;99.90
12661;DHT22;39039;51.802;5.710;2022-09-09T19:46:00;15.70;99.90
12661;DHT22;39039;51.802;5.710;2022-09-09T19:48:29;15.70;99.90
12661;DHT22;39039;51.802;5.710;2022-09-09T19:51:00;15.60;99.90
12661;DHT22;39039;51.802;5.710;2022-09-09T19:58:24;15.70;99.90
12661;DHT22;39039;51.802;5.710;2022-09-09T20:00:50;15.80;99.90
12661;DHT22;39039;51.802;5.710;2022-09-09T20:05:47;15.80;99.90
12661;DHT22;39039;51.802;5.710;2022-09-09T20:10:50;15.80;99.90
12661;DHT22;39039;51.802;5.710;2022-09-09T20:15:55;15.80;99.90
12661;DHT22;39039;51.802;5.710;2022-09-09T20:28:10;15.70;99.90
12661;DHT22;39039;51.802;5.710;2022-09-09T20:33:06;15.70;99.90
12661;DHT22;39039;51.802;5.710;2022-09-09T20:42:57;15.70;99.90
12661;DHT22;39039;51.802;5.710;2022-09-09T20:47:50;15.70;99.90
12661;DHT22;39039;51.802;5.710;2022-09-09T20:50:22;15.70;99.90
12661;DHT22;39039;51.802;5.710;2022-09-09T21:00:11;15.70;99.90
12661;DHT22;39039;51.802;5.710;2022-09-09T21:05:06;15.70;99.90
12661;DHT22;39039;51.802;5.710;2022-09-09T21:07:35;15.70;99.90
12661;DHT22;39039;51.802;5.710;2022-09-09T21:10:02;15.70;99.90
12661;DHT22;39039;51.802;5.710;2022-09-09T21:12:29;15.60;99.90
12661;DHT22;39039;51.802;5.710;2022-09-09T21:14:55;15.70;99.90
12661;DHT22;39039;51.802;5.710;2022-09-09T21:22:16;15.60;99.90
12661;DHT22;39039;51.802;5.710;2022-09-09T21:24:44;15.60;99.90
12661;DHT22;39039;51.802;5.710;2022-09-09T21:41:57;15.90;99.90
12661;DHT22;39039;51.802;5.710;2022-09-09T21:56:39;15.70;99.90
12661;DHT22;39039;51.802;5.710;2022-09-09T21:59:07;15.70;99.90
12661;DHT22;39039;51.802;5.710;2022-09-09T22:04:02;15.60;99.90
12661;DHT22;39039;51.802;5.710;2022-09-09T22:08:56;15.60;99.90
12661;DHT22;39039;51.802;5.710;2022-09-09T22:16:21;15.50;99.90
12661;DHT22;39039;51.802;5.710;2022-09-09T22:18:52;15.50;99.90
12661;DHT22;39039;51.802;5.710;2022-09-09T22:23:50;15.50;99.90
12661;DHT22;39039;51.802;5.710;2022-09-09T22:26:18;15.50;99.90
12661;DHT22;39039;51.802;5.710;2022-09-09T22:31:12;15.40;99.90
12661;DHT22;39039;51.802;5.710;2022-09-09T22:33:41;15.40;99.90